createdAt,value
2023-04-03T00:01:20.146Z,74.12
2023-04-03T00:04:06.793Z,74.19
2023-04-03T00:06:52.729Z,74.59
2023-04-03T00:09:38.310Z,74.02
2023-04-03T00:12:24.561Z,74.26
2023-04-03T00:15:10.455Z,74.45
2023-04-03T00:17:57.314Z,74.51
2023-04-03T00:20:47.841Z,74.44
2023-04-03T00:23:33.658Z,74.35
2023-04-03T00:26:19.341Z,74.57
2023-04-03T00:29:05.314Z,74.79
2023-04-03T00:31:51.173Z,74.73
2023-04-03T00:34:37.271Z,74.31
2023-04-03T00:37:23.355Z,74.28
2023-04-03T00:40:10.419Z,74.40
2023-04-03T00:42:59.524Z,74.84
2023-04-03T00:45:48.047Z,74.76
2023-04-03T00:48:38.889Z,74.52
2023-04-03T00:51:26.287Z,74.75
2023-04-03T00:54:13.261Z,74.26
2023-04-03T00:56:59.632Z,74.62
2023-04-03T00:59:51.924Z,74.41
2023-04-03T01:02:38.259Z,74.39
2023-04-03T01:05:24.222Z,74.75
2023-04-03T01:08:10.199Z,74.98
2023-04-03T01:10:55.984Z,74.77
2023-04-03T01:13:42.526Z,74.46
2023-04-03T01:16:31.632Z,74.80
2023-04-03T01:19:19.128Z,74.27
2023-04-03T01:22:26.650Z,74.59
2023-04-03T01:25:14.443Z,74.63
2023-04-03T01:28:00.375Z,74.50
2023-04-03T01:30:55.514Z,74.62
2023-04-03T01:33:41.401Z,74.70
2023-04-03T01:36:29.967Z,74.11
2023-04-03T01:39:16.432Z,74.59
2023-04-03T01:42:02.508Z,74.18
2023-04-03T01:44:55.584Z,74.58
2023-04-03T01:47:41.187Z,74.66
2023-04-03T01:50:27.199Z,74.19
2023-04-03T01:53:12.906Z,74.42
2023-04-03T01:55:58.573Z,74.56
2023-04-03T01:58:44.669Z,74.23
2023-04-03T02:01:30.885Z,74.26
2023-04-03T02:04:16.750Z,74.27
2023-04-03T02:07:02.583Z,74.49
2023-04-03T02:09:48.201Z,74.33
2023-04-03T02:12:34.126Z,74.35
2023-04-03T02:15:19.677Z,74.44
2023-04-03T02:18:07.782Z,74.18
2023-04-03T02:20:53.803Z,74.52
2023-04-03T02:23:40.067Z,74.53
2023-04-03T02:26:28.173Z,74.76
2023-04-03T02:29:14.239Z,74.47
2023-04-03T02:32:00.403Z,74.54
2023-04-03T02:34:46.401Z,74.73
2023-04-03T02:37:33.597Z,74.53
2023-04-03T02:40:19.622Z,74.46
2023-04-03T02:43:05.265Z,75.10
2023-04-03T02:45:51.237Z,75.03
2023-04-03T02:48:37.704Z,74.89
2023-04-03T02:51:24.166Z,75.06
2023-04-03T02:54:11.381Z,75.00
2023-04-03T02:57:03.743Z,75.09
2023-04-03T02:59:49.547Z,74.62
2023-04-03T03:02:35.860Z,74.78
2023-04-03T03:05:21.797Z,75.21
2023-04-03T03:08:07.631Z,75.06
2023-04-03T03:10:53.565Z,75.03
2023-04-03T03:13:39.778Z,74.67
2023-04-03T03:16:25.708Z,74.80
2023-04-03T03:19:11.511Z,74.45
2023-04-03T03:21:58.077Z,74.80
2023-04-03T03:24:43.462Z,74.55
2023-04-03T03:27:29.445Z,74.30
2023-04-03T03:30:15.154Z,74.73
2023-04-03T03:33:01.438Z,74.48
2023-04-03T03:35:47.536Z,74.17
2023-04-03T03:38:33.237Z,73.74
2023-04-03T03:41:20.371Z,74.07
2023-04-03T03:44:07.175Z,73.89
2023-04-03T03:46:53.010Z,74.21
2023-04-03T03:49:38.558Z,73.82
2023-04-03T03:52:24.243Z,74.04
2023-04-03T03:55:10.373Z,73.65
2023-04-03T03:57:56.895Z,73.87
2023-04-03T04:00:42.524Z,74.35
2023-04-03T04:03:29.393Z,73.86
2023-04-03T04:06:15.976Z,73.34
2023-04-03T04:09:02.153Z,72.96
2023-04-03T04:11:49.431Z,72.68
2023-04-03T04:14:36.546Z,72.59
2023-04-03T04:17:23.143Z,72.41
2023-04-03T04:20:10.662Z,71.87
2023-04-03T04:22:56.845Z,71.32
2023-04-03T04:25:46.465Z,71.26
2023-04-03T04:28:32.671Z,71.62
2023-04-03T04:31:21.077Z,71.27
2023-04-03T04:34:07.685Z,70.68
2023-04-03T04:36:55.814Z,70.12
2023-04-03T04:39:41.726Z,70.22
2023-04-03T04:42:29.529Z,70.06
2023-04-03T04:45:17.316Z,69.95
2023-04-03T04:48:05.659Z,69.79
2023-04-03T04:50:52.063Z,69.27
2023-04-03T04:53:38.247Z,69.47
2023-04-03T04:56:24.720Z,69.32
2023-04-03T04:59:10.537Z,69.38
2023-04-03T05:01:56.460Z,69.70
2023-04-03T05:04:42.406Z,69.24
2023-04-03T05:07:33.936Z,69.50
2023-04-03T05:10:21.747Z,69.12
2023-04-03T05:13:07.795Z,69.18
2023-04-03T05:15:53.365Z,68.87
2023-04-03T05:18:39.598Z,68.84
2023-04-03T05:21:33.334Z,68.66
2023-04-03T05:24:23.997Z,67.99
2023-04-03T05:27:09.732Z,68.78
2023-04-03T05:29:59.021Z,68.96
2023-04-03T05:32:46.497Z,68.33
2023-04-03T05:35:40.460Z,69.10
2023-04-03T05:38:28.194Z,68.60
2023-04-03T05:41:15.887Z,68.29
2023-04-03T05:44:04.346Z,67.78
2023-04-03T05:46:50.499Z,67.98
2023-04-03T05:49:36.363Z,67.76
2023-04-03T05:52:27.598Z,68.00
2023-04-03T05:55:13.428Z,67.41
2023-04-03T05:57:59.382Z,68.33
2023-04-03T06:00:45.350Z,67.66
2023-04-03T06:03:32.389Z,67.72
2023-04-03T06:06:18.462Z,67.58
2023-04-03T06:09:04.292Z,67.72
2023-04-03T06:11:50.325Z,67.84
2023-04-03T06:14:37.739Z,68.01
2023-04-03T06:17:23.602Z,68.01
2023-04-03T06:20:10.721Z,68.02
2023-04-03T06:22:56.554Z,67.72
2023-04-03T06:25:43.200Z,67.70
2023-04-03T06:28:28.923Z,67.26
2023-04-03T06:31:15.189Z,67.48
2023-04-03T06:34:01.854Z,68.06
2023-04-03T06:36:47.653Z,67.72
2023-04-03T06:39:34.066Z,67.61
2023-04-03T06:42:20.227Z,67.94
2023-04-03T06:45:12.909Z,67.88
2023-04-03T06:47:58.654Z,67.83
2023-04-03T06:50:44.625Z,67.92
2023-04-03T06:53:30.848Z,67.75
2023-04-03T06:56:17.658Z,67.85
2023-04-03T06:59:03.940Z,67.70
2023-04-03T07:01:50.470Z,67.85
2023-04-03T07:04:37.695Z,67.49
2023-04-03T07:07:23.208Z,67.75
2023-04-03T07:10:09.612Z,68.10
2023-04-03T07:12:55.496Z,67.69
2023-04-03T07:15:41.322Z,67.61
2023-04-03T07:18:27.537Z,67.81
2023-04-03T07:21:13.753Z,67.21
2023-04-03T07:23:59.893Z,67.09
2023-04-03T07:26:46.644Z,67.02
2023-04-03T07:29:32.530Z,65.88
2023-04-03T07:32:18.694Z,66.82
2023-04-03T07:35:05.050Z,66.56
2023-04-03T07:37:50.493Z,65.59
2023-04-03T07:40:36.196Z,65.43
2023-04-03T07:43:23.792Z,65.79
2023-04-03T07:46:10.612Z,65.38
2023-04-03T07:48:57.417Z,65.52
2023-04-03T07:51:44.567Z,65.88
2023-04-03T07:54:30.218Z,65.51
2023-04-03T07:57:16.044Z,65.04
2023-04-03T08:00:02.614Z,64.94
2023-04-03T08:02:58.066Z,63.80
2023-04-03T08:05:45.761Z,64.20
2023-04-03T08:08:31.269Z,63.65
2023-04-03T08:11:17.142Z,63.72
2023-04-03T08:14:03.916Z,63.62
2023-04-03T08:16:49.984Z,63.18
2023-04-03T08:19:35.838Z,62.54
2023-04-03T08:22:21.657Z,63.07
2023-04-03T08:25:08.200Z,62.43
2023-04-03T08:27:53.950Z,61.97
2023-04-03T08:30:43.673Z,62.14
2023-04-03T08:33:29.916Z,60.89
2023-04-03T08:36:24.661Z,61.10
2023-04-03T08:39:10.904Z,61.45
2023-04-03T08:42:00.180Z,62.08
2023-04-03T08:45:01.713Z,61.79
2023-04-03T08:48:16.649Z,62.21
2023-04-03T08:51:12.162Z,61.36
2023-04-03T08:53:57.928Z,61.58
2023-04-03T08:56:44.057Z,62.11
2023-04-03T08:59:34.940Z,62.56
2023-04-03T09:02:30.393Z,61.97
2023-04-03T09:05:25.077Z,61.63
2023-04-03T09:08:24.385Z,61.98
2023-04-03T09:11:28.847Z,62.00
2023-04-03T09:14:31.149Z,61.73
2023-04-03T09:17:32.135Z,60.94
2023-04-03T09:20:21.409Z,61.94
2023-04-03T09:23:24.943Z,60.82
2023-04-03T09:26:18.155Z,60.87
2023-04-03T09:29:08.343Z,60.89
2023-04-03T09:31:59.278Z,61.17
2023-04-03T09:34:45.458Z,62.00
2023-04-03T09:38:01.129Z,61.39
2023-04-03T09:40:50.350Z,60.27
2023-04-03T09:43:40.095Z,61.61
2023-04-03T09:46:34.765Z,60.29
2023-04-03T09:49:22.077Z,60.30
2023-04-03T09:52:21.825Z,60.39
2023-04-03T09:55:20.479Z,60.23
2023-04-03T09:58:25.506Z,59.71
2023-04-03T10:01:31.407Z,59.84
2023-04-03T10:04:20.852Z,59.97
2023-04-03T10:07:31.318Z,60.11
2023-04-03T10:10:24.708Z,61.22
2023-04-03T10:13:21.101Z,60.66
2023-04-03T10:16:16.054Z,60.48
2023-04-03T10:19:21.497Z,60.86
2023-04-03T10:22:20.131Z,60.58
2023-04-03T10:25:19.792Z,59.99
2023-04-03T10:28:20.094Z,59.98
2023-04-03T10:31:18.281Z,58.98
2023-04-03T10:34:08.400Z,58.32
2023-04-03T10:37:23.757Z,58.24
2023-04-03T10:41:06.204Z,56.35
2023-04-03T10:44:17.586Z,57.17
2023-04-03T10:47:34.154Z,56.91
2023-04-03T10:50:40.434Z,56.55
2023-04-03T10:53:38.810Z,57.65
2023-04-03T10:56:53.113Z,56.80
2023-04-03T10:59:55.522Z,56.54
2023-04-03T11:02:51.380Z,56.27
2023-04-03T11:05:48.335Z,56.75
2023-04-03T11:09:07.830Z,55.65
2023-04-03T11:11:57.379Z,56.09
2023-04-03T11:14:44.339Z,55.81
2023-04-03T11:17:45.489Z,57.08
2023-04-03T11:20:35.875Z,55.16
2023-04-03T11:23:42.250Z,57.77
2023-04-03T11:26:39.980Z,55.95
2023-04-03T11:29:36.233Z,55.82
2023-04-03T11:32:58.324Z,55.25
2023-04-03T11:35:49.575Z,54.81
2023-04-03T11:38:40.624Z,55.68
2023-04-03T11:41:29.748Z,55.15
2023-04-03T11:44:31.431Z,54.80
2023-04-03T11:47:50.046Z,54.59
2023-04-03T11:50:35.818Z,53.45
2023-04-03T11:53:30.347Z,54.78
2023-04-03T11:56:25.222Z,53.22
2023-04-03T11:59:14.940Z,54.40
2023-04-03T12:02:11.380Z,54.41
2023-04-03T12:05:33.974Z,53.81
2023-04-03T12:08:34.757Z,54.31
2023-04-03T12:11:35.978Z,53.79
2023-04-03T12:14:26.381Z,54.08
2023-04-03T12:17:28.145Z,54.74
2023-04-03T12:20:50.870Z,54.03
2023-04-03T12:23:57.184Z,53.99
2023-04-03T12:26:49.673Z,53.27
2023-04-03T12:30:02.330Z,54.18
2023-04-03T12:33:13.643Z,53.95
2023-04-03T12:36:07.764Z,53.84
2023-04-03T12:40:59.366Z,50.68
2023-04-03T12:44:03.742Z,51.44
2023-04-03T12:46:52.620Z,51.40
2023-04-03T12:49:43.760Z,51.28
2023-04-03T12:52:43.358Z,53.61
2023-04-03T12:55:28.999Z,53.52
2023-04-03T12:58:27.604Z,52.23
2023-04-03T13:01:16.045Z,52.19
2023-04-03T13:04:01.525Z,52.25
2023-04-03T13:06:47.638Z,52.97
2023-04-03T13:09:33.548Z,52.55
2023-04-03T13:12:19.368Z,51.96
2023-04-03T13:15:19.607Z,50.66
2023-04-03T13:18:05.057Z,52.24
2023-04-03T13:20:51.208Z,52.28
2023-04-03T13:23:41.606Z,51.61
2023-04-03T13:26:31.179Z,51.98
2023-04-03T13:29:32.142Z,51.15
2023-04-03T13:32:22.499Z,52.35
2023-04-03T13:35:31.639Z,50.85
2023-04-03T13:38:20.676Z,53.28
2023-04-03T13:41:25.078Z,50.75
2023-04-03T13:44:23.403Z,50.89
2023-04-03T13:47:12.678Z,51.55
2023-04-03T13:50:16.557Z,50.94
2023-04-03T13:53:14.645Z,51.46
2023-04-03T13:55:59.905Z,50.39
2023-04-03T13:59:26.635Z,50.74
2023-04-03T14:02:29.822Z,52.23
2023-04-03T14:05:17.231Z,52.28
2023-04-03T14:08:03.117Z,52.16
2023-04-03T14:10:50.710Z,51.21
2023-04-03T14:13:36.497Z,52.28
2023-04-03T14:16:28.256Z,53.30
2023-04-03T14:19:28.745Z,51.93
2023-04-03T14:22:19.722Z,52.42
2023-04-03T14:25:05.820Z,52.43
2023-04-03T14:27:53.142Z,51.85
2023-04-03T14:30:39.216Z,52.02
2023-04-03T14:33:27.185Z,52.16
2023-04-03T14:36:17.058Z,51.47
2023-04-03T14:39:05.819Z,51.88
2023-04-03T14:41:51.247Z,52.44
2023-04-03T14:44:36.898Z,52.66
2023-04-03T14:47:31.422Z,53.06
2023-04-03T14:50:22.147Z,53.52
2023-04-03T14:53:07.755Z,52.93
2023-04-03T14:55:53.564Z,53.89
2023-04-03T14:58:39.157Z,54.30
2023-04-03T15:01:25.776Z,53.89
2023-04-03T15:04:19.693Z,52.93
2023-04-03T15:07:05.756Z,53.19
2023-04-03T15:09:51.432Z,53.18
2023-04-03T15:12:37.039Z,53.90
2023-04-03T15:15:23.582Z,54.11
2023-04-03T15:18:14.992Z,53.11
2023-04-03T15:21:00.347Z,52.96
2023-04-03T15:23:45.803Z,53.46
2023-04-03T15:26:32.565Z,53.51
2023-04-03T15:29:17.879Z,53.27
2023-04-03T15:32:03.603Z,53.15
2023-04-03T15:34:49.267Z,53.12
2023-04-03T15:37:34.651Z,53.49
2023-04-03T15:40:20.197Z,54.20
2023-04-03T15:43:07.871Z,53.47
2023-04-03T15:45:57.358Z,53.79
2023-04-03T15:48:42.753Z,53.63
2023-04-03T15:51:28.354Z,52.78
2023-04-03T15:54:14.432Z,53.23
2023-04-03T15:56:59.740Z,53.80
2023-04-03T15:59:45.086Z,53.03
2023-04-03T16:02:30.558Z,53.06
2023-04-03T16:05:18.276Z,52.78
2023-04-03T16:08:04.095Z,52.74
2023-04-03T16:10:49.991Z,53.63
2023-04-03T16:13:36.068Z,53.62
2023-04-03T16:16:22.157Z,53.47
2023-04-03T16:19:07.970Z,53.95
2023-04-03T16:21:55.505Z,54.86
2023-04-03T16:24:41.671Z,54.39
2023-04-03T16:27:28.621Z,54.82
2023-04-03T16:30:14.000Z,54.66
2023-04-03T16:32:59.445Z,54.86
2023-04-03T16:35:45.400Z,55.26
2023-04-03T16:38:30.814Z,54.50
2023-04-03T16:41:16.163Z,55.14
2023-04-03T16:44:01.815Z,55.44
2023-04-03T16:46:48.282Z,55.43
2023-04-03T16:49:35.106Z,55.83
2023-04-03T16:52:20.719Z,55.62
2023-04-03T16:55:06.760Z,55.91
2023-04-03T16:57:52.409Z,56.21
2023-04-03T17:00:38.326Z,55.80
2023-04-03T17:03:26.691Z,55.41
2023-04-03T17:06:17.315Z,56.06
2023-04-03T17:09:02.872Z,55.89
2023-04-03T17:11:49.371Z,56.26
2023-04-03T17:14:34.852Z,55.91
2023-04-03T17:17:24.823Z,56.25
2023-04-03T17:20:11.044Z,56.68
2023-04-03T17:22:56.497Z,56.48
2023-04-03T17:25:41.990Z,57.02
2023-04-03T17:28:28.969Z,57.25
2023-04-03T17:31:14.304Z,56.56
2023-04-03T17:34:01.857Z,56.81
2023-04-03T17:36:47.822Z,57.17
2023-04-03T17:39:33.369Z,57.37
2023-04-03T17:42:19.036Z,57.32
2023-04-03T17:45:05.122Z,57.39
2023-04-03T17:47:52.444Z,57.70
2023-04-03T17:50:38.035Z,57.44
2023-04-03T17:53:23.823Z,57.66
2023-04-03T17:56:11.419Z,57.65
2023-04-03T17:58:58.536Z,57.48
2023-04-03T18:01:46.766Z,58.06
2023-04-03T18:04:32.565Z,57.79
2023-04-03T18:07:17.918Z,58.19
2023-04-03T18:10:05.250Z,58.01
2023-04-03T18:12:51.533Z,58.09
2023-04-03T18:15:43.817Z,58.54
2023-04-03T18:18:29.302Z,58.13
2023-04-03T18:21:15.449Z,58.39
2023-04-03T18:24:02.299Z,58.42
2023-04-03T18:26:51.737Z,58.39
2023-04-03T18:29:40.545Z,58.28
2023-04-03T18:32:26.316Z,58.18
2023-04-03T18:35:12.016Z,58.15
2023-04-03T18:37:57.275Z,58.29
2023-04-03T18:40:44.859Z,57.89
2023-04-03T18:43:30.537Z,58.17
2023-04-03T18:46:16.505Z,58.20
2023-04-03T18:49:03.832Z,58.19
2023-04-03T18:51:49.738Z,57.54
2023-04-03T18:54:37.421Z,58.66
2023-04-03T18:57:23.173Z,58.23
2023-04-03T19:00:09.052Z,58.29
2023-04-03T19:02:54.473Z,58.27
2023-04-03T19:05:40.130Z,58.41
2023-04-03T19:08:25.663Z,57.88
2023-04-03T19:11:11.228Z,57.87
2023-04-03T19:14:04.248Z,57.98
2023-04-03T19:16:59.891Z,58.41
2023-04-03T19:19:45.237Z,58.06
2023-04-03T19:22:31.153Z,58.35
2023-04-03T19:25:16.509Z,58.34
2023-04-03T19:28:01.930Z,58.33
2023-04-03T19:30:48.309Z,58.06
2023-04-03T19:33:34.928Z,58.47
2023-04-03T19:36:20.472Z,58.02
2023-04-03T19:39:06.356Z,57.51
2023-04-03T19:41:52.192Z,58.45
2023-04-03T19:44:38.486Z,57.53
2023-04-03T19:47:24.742Z,57.93
2023-04-03T19:50:10.845Z,58.07
2023-04-03T19:52:56.048Z,57.67
2023-04-03T19:55:41.690Z,57.84
2023-04-03T19:58:30.212Z,58.71
2023-04-03T20:01:15.493Z,57.99
2023-04-03T20:04:00.881Z,58.19
2023-04-03T20:06:46.757Z,58.60
2023-04-03T20:09:33.108Z,58.18
2023-04-03T20:12:18.745Z,57.95
2023-04-03T20:15:07.777Z,58.56
2023-04-03T20:17:54.740Z,58.35
2023-04-03T20:20:42.128Z,57.90
2023-04-03T20:23:29.261Z,57.64
2023-04-03T20:26:24.504Z,57.04
2023-04-03T20:29:09.932Z,57.17
2023-04-03T20:31:55.949Z,56.65
2023-04-03T20:34:42.739Z,56.74
2023-04-03T20:37:29.473Z,56.32
2023-04-03T20:40:15.376Z,56.86
2023-04-03T20:43:03.565Z,56.72
2023-04-03T20:45:49.749Z,56.08
2023-04-03T20:48:35.594Z,56.09
2023-04-03T20:51:21.689Z,55.51
2023-04-03T20:54:07.276Z,55.98
2023-04-03T20:56:52.796Z,56.08
2023-04-03T20:59:40.233Z,56.14
2023-04-03T21:02:25.487Z,55.76
2023-04-03T21:05:11.499Z,55.91
2023-04-03T21:08:36.073Z,55.77
2023-04-03T21:11:59.227Z,55.86
2023-04-03T21:15:23.040Z,55.43
2023-04-03T21:18:08.667Z,55.56
2023-04-03T21:20:55.070Z,56.03
2023-04-03T21:23:40.449Z,56.34
2023-04-03T21:26:27.294Z,56.33
2023-04-03T21:29:12.688Z,56.25
2023-04-03T21:31:59.991Z,56.09
2023-04-03T21:34:45.781Z,56.53
2023-04-03T21:37:34.136Z,56.69
2023-04-03T21:40:19.606Z,56.57
2023-04-03T21:43:05.624Z,56.92
2023-04-03T21:45:55.900Z,56.62
2023-04-03T21:48:41.243Z,56.64
2023-04-03T21:51:27.831Z,56.84
2023-04-03T21:54:13.708Z,56.56
2023-04-03T21:56:59.333Z,56.74
2023-04-03T21:59:45.543Z,56.61
2023-04-03T22:02:33.620Z,57.33
2023-04-03T22:05:19.121Z,57.11
2023-04-03T22:08:04.459Z,56.82
2023-04-03T22:10:49.749Z,57.44
2023-04-03T22:13:35.743Z,57.47
2023-04-03T22:16:23.354Z,57.42
2023-04-03T22:19:09.030Z,57.35
2023-04-03T22:21:55.101Z,57.40
2023-04-03T22:24:40.981Z,57.48
2023-04-03T22:27:26.434Z,57.83
2023-04-03T22:30:12.136Z,57.70
2023-04-03T22:32:57.696Z,57.84
2023-04-03T22:35:47.335Z,57.99
2023-04-03T22:38:33.220Z,57.43
2023-04-03T22:41:19.019Z,57.95
2023-04-03T22:44:04.745Z,57.66
2023-04-03T22:46:50.501Z,57.58
2023-04-03T22:49:35.847Z,57.46
2023-04-03T22:52:22.680Z,57.74
2023-04-03T22:55:18.489Z,57.70
2023-04-03T22:58:05.689Z,57.51
2023-04-03T23:00:50.990Z,57.66
2023-04-03T23:03:38.086Z,58.03
2023-04-03T23:06:23.701Z,57.86
2023-04-03T23:09:09.651Z,57.84
2023-04-03T23:11:55.059Z,58.42
2023-04-03T23:14:40.434Z,58.40
2023-04-03T23:17:26.161Z,58.26
2023-04-03T23:20:11.724Z,58.13
2023-04-03T23:22:57.209Z,58.41
2023-04-03T23:25:42.528Z,57.91
2023-04-03T23:28:28.830Z,58.35
2023-04-03T23:31:14.227Z,58.11
2023-04-03T23:33:59.510Z,58.42
2023-04-03T23:36:44.936Z,58.41
2023-04-03T23:39:30.440Z,58.18
2023-04-03T23:42:15.853Z,58.15
2023-04-03T23:45:01.550Z,58.55
2023-04-03T23:47:46.886Z,58.54
2023-04-03T23:50:32.228Z,58.69
2023-04-03T23:53:18.398Z,58.68
2023-04-03T23:56:03.696Z,58.66
2023-04-03T23:58:49.262Z,58.51
